Thomasville, Pennsylvania
Current Conditions -  °F | °C
As of 12:53 PM on Thursday 27 Nov 2014 (Local Time) from KTHV Reporting Station
Broken Clouds Broken Clouds  
Wind Chill: 37°   Ceiling: 2900
Heat Index: 37°   Visibility: 10mi
Dew Point: 29°   Wind: 0mph
Humidity: 73%   Direction: NA
Pressure: 30.03"   Gusts: NA
Location:  39.93°N, 76.85°W
Report Text: KTHV 271753Z AUTO 00000KT 10SM BKN029 BKN038 03/M02 A3003 RMK AO2 SLP176 T00281017 10033 21017 55004
Loading
Personal Weather Stations






























Interactive Weather Map New forecast layout! Learn more

10-Day Weather Forecast

Advertisements
Track Severe Weather on mobile